Time;durP1;ratioP1;P1;durP2;ratioP2;P2;SDS_P1;SDS_P2;PMS_P1;PMS_P2;Temp;Humidity;BMP_temperature;BMP_pressure;BME280_temperature;BME280_humidity;BME280_pressure;Samples;Min_cycle;Max_cycle;Signal;HPM_P1;HPM_P2
2021/06/27 00:00:42;;;;;;;18.48;4.63;;;;;;;16.84;100.00;95095.06;5085675;28;20044;-69
2021/06/27 00:03:10;;;;;;;33.05;5.55;;;;;;;16.71;100.00;95106.06;5086742;28;20036;-69
2021/06/27 00:05:38;;;;;;;19.98;5.38;;;;;;;16.55;100.00;95107.91;5086596;28;20134;-69
2021/06/27 00:08:06;;;;;;;19.73;5.10;;;;;;;16.58;100.00;95092.41;5087619;28;20113;-69
2021/06/27 00:10:39;;;;;;;21.92;4.97;;;;;;;16.66;100.00;95092.91;5086459;28;20047;-69
2021/06/27 00:13:07;;;;;;;26.80;4.88;;;;;;;16.52;100.00;95082.91;5086302;28;20036;-69
2021/06/27 00:15:38;;;;;;;15.85;4.30;;;;;;;16.54;100.00;95080.81;5087956;28;20044;-69
2021/06/27 00:18:07;;;;;;;24.77;4.63;;;;;;;16.55;100.00;95077.13;5087043;28;20044;-69
2021/06/27 00:20:36;;;;;;;18.48;4.10;;;;;;;16.54;100.00;95093.94;5087664;28;20494;-69
2021/06/27 00:23:04;;;;;;;15.48;4.40;;;;;;;16.52;100.00;95096.06;5085855;28;20040;-69
2021/06/27 00:25:32;;;;;;;17.52;4.72;;;;;;;16.47;100.00;95085.53;5086177;28;20048;-69
2021/06/27 00:27:59;;;;;;;21.17;4.78;;;;;;;16.44;100.00;95081.59;5084957;28;20044;-69
2021/06/27 00:30:27;;;;;;;33.30;5.43;;;;;;;16.40;100.00;95080.53;5085723;28;21897;-69
2021/06/27 00:32:55;;;;;;;21.58;4.90;;;;;;;16.36;100.00;95083.94;5085863;28;20055;-69
2021/06/27 00:35:26;;;;;;;26.08;6.35;;;;;;;16.37;100.00;95085.53;5086140;28;20040;-69
2021/06/27 00:37:53;;;;;;;14.63;4.00;;;;;;;16.41;100.00;95076.06;5085778;28;20036;-69
2021/06/27 00:40:23;;;;;;;23.23;5.00;;;;;;;16.49;100.00;95078.16;5085884;28;20040;-69
2021/06/27 00:42:51;;;;;;;30.55;5.50;;;;;;;16.53;100.00;95063.47;5085544;28;20475;-69
2021/06/27 00:45:19;;;;;;;25.33;5.50;;;;;;;16.58;100.00;95070.53;5086040;28;20043;-69
2021/06/27 00:47:47;;;;;;;20.75;5.30;;;;;;;16.48;100.00;95066.09;5086496;28;20037;-69
2021/06/27 00:50:21;;;;;;;17.23;5.20;;;;;;;16.55;100.00;95071.88;5090159;28;20060;-69
2021/06/27 00:52:49;;;;;;;20.63;4.70;;;;;;;16.63;100.00;95068.69;5089814;28;20044;-69
2021/06/27 00:55:17;;;;;;;20.70;5.07;;;;;;;16.63;100.00;95063.44;5089962;28;20048;-69
2021/06/27 00:57:46;;;;;;;22.02;4.93;;;;;;;16.54;100.00;95075.53;5089132;28;20044;-69
2021/06/27 01:00:15;;;;;;;25.92;5.20;;;;;;;16.50;100.00;95058.72;5091512;28;20047;-69
2021/06/27 01:02:44;;;;;;;16.98;5.05;;;;;;;16.20;100.00;95062.88;5090037;28;20040;-69
2021/06/27 01:05:14;;;;;;;20.33;5.07;;;;;;;16.11;100.00;95061.03;5088908;28;20040;-69
2021/06/27 01:07:41;;;;;;;20.52;4.90;;;;;;;15.98;100.00;95057.06;5089137;28;20048;-69
2021/06/27 01:10:09;;;;;;;20.30;6.22;;;;;;;15.97;100.00;95060.72;5089627;28;20418;-69
2021/06/27 01:12:36;;;;;;;24.33;4.85;;;;;;;15.86;100.00;95059.91;5089318;28;20043;-69
2021/06/27 01:15:05;;;;;;;15.98;4.65;;;;;;;15.89;100.00;95048.13;5089484;28;20097;-69
2021/06/27 01:17:32;;;;;;;13.98;6.25;;;;;;;15.63;100.00;95040.91;5088260;28;20040;-69
2021/06/27 01:19:59;;;;;;;23.88;6.40;;;;;;;15.59;100.00;95045.09;5089502;28;20479;-69
2021/06/27 01:22:26;;;;;;;13.15;5.43;;;;;;;15.66;100.00;95047.47;5089058;28;20044;-69
2021/06/27 01:24:53;;;;;;;13.57;4.03;;;;;;;15.67;100.00;95041.19;5089444;28;20437;-69
2021/06/27 01:27:20;;;;;;;24.05;3.65;;;;;;;15.75;100.00;95048.59;5088955;28;20056;-69
2021/06/27 01:29:47;;;;;;;21.55;5.75;;;;;;;15.75;100.00;95040.69;5087532;28;20486;-69
2021/06/27 01:32:14;;;;;;;19.15;5.72;;;;;;;15.67;100.00;95035.94;5089126;28;20606;-69
2021/06/27 01:34:44;;;;;;;14.95;4.80;;;;;;;15.78;100.00;95042.81;5089587;28;20603;-69
2021/06/27 01:37:11;;;;;;;26.23;4.07;;;;;;;15.82;100.00;95038.63;5088939;28;20044;-69
2021/06/27 01:39:40;;;;;;;12.45;5.20;;;;;;;15.90;100.00;95039.16;5089108;28;20051;-69
2021/06/27 01:42:07;;;;;;;53.50;38.38;;;;;;;15.79;100.00;95031.28;5089166;28;20044;-69
2021/06/27 01:44:34;;;;;;;91.18;72.97;;;;;;;15.64;100.00;95039.06;5088961;28;20124;-69
2021/06/27 01:47:02;;;;;;;76.38;58.20;;;;;;;15.55;100.00;95053.75;5090052;28;20395;-69
2021/06/27 01:49:28;;;;;;;40.38;29.95;;;;;;;15.63;100.00;95053.25;5088583;28;20463;-69
2021/06/27 01:51:55;;;;;;;40.13;27.50;;;;;;;15.75;100.00;95048.59;5088601;28;20062;-69
2021/06/27 01:54:22;;;;;;;27.58;16.40;;;;;;;15.83;100.00;95037.59;5088863;28;20543;-69
2021/06/27 01:56:49;;;;;;;18.73;12.07;;;;;;;15.94;100.00;95040.25;5088778;28;20035;-69
2021/06/27 01:59:16;;;;;;;18.70;7.75;;;;;;;15.98;100.00;95028.16;5088271;28;20036;-69
2021/06/27 02:01:43;;;;;;;21.10;7.45;;;;;;;16.03;100.00;95022.94;5088714;28;20044;-69
2021/06/27 02:04:10;;;;;;;13.75;4.65;;;;;;;16.00;100.00;95012.94;5088743;28;20064;-69
2021/06/27 02:06:42;;;;;;;23.02;4.18;;;;;;;15.86;100.00;95008.19;5088665;28;20166;-69
2021/06/27 02:09:11;;;;;;;20.77;3.42;;;;;;;15.86;100.00;95023.94;5088976;28;20051;-69
2021/06/27 02:11:39;;;;;;;15.50;3.20;;;;;;;15.84;100.00;95026.03;5088401;28;20429;-69
2021/06/27 02:14:06;;;;;;;11.27;3.50;;;;;;;15.72;100.00;95022.84;5090097;28;20521;-69
2021/06/27 02:16:34;;;;;;;11.43;3.08;;;;;;;15.83;100.00;95040.22;5088051;28;20066;-69
2021/06/27 02:19:02;;;;;;;13.95;3.22;;;;;;;15.80;100.00;95035.47;5088532;28;20043;-69
2021/06/27 02:21:35;;;;;;;11.60;3.33;;;;;;;15.92;100.00;95037.06;5088334;28;20032;-69
2021/06/27 02:24:04;;;;;;;14.00;3.47;;;;;;;15.99;100.00;95035.00;5088127;28;20409;-69
2021/06/27 02:26:33;;;;;;;13.05;3.22;;;;;;;16.09;100.00;95037.63;5088005;28;20056;-69
2021/06/27 02:29:01;;;;;;;24.90;3.22;;;;;;;16.15;100.00;95038.44;5086660;28;20040;-69
2021/06/27 02:31:30;;;;;;;24.95;3.38;;;;;;;16.21;99.82;95024.28;5088077;28;20044;-69
2021/06/27 02:33:58;;;;;;;15.35;3.13;;;;;;;16.25;98.54;95010.34;5087001;28;20044;-69
2021/06/27 02:36:26;;;;;;;12.10;3.20;;;;;;;16.38;97.89;95016.13;5087740;28;20051;-69
2021/06/27 02:38:52;;;;;;;12.40;2.60;;;;;;;16.43;97.32;95026.66;5088118;28;20032;-69
2021/06/27 02:41:20;;;;;;;11.43;2.75;;;;;;;16.41;96.78;95028.75;5087872;28;20043;-69
2021/06/27 02:43:47;;;;;;;18.23;2.85;;;;;;;16.31;98.62;95034.78;5086231;28;20039;-69
2021/06/27 02:46:15;;;;;;;14.55;3.38;;;;;;;16.19;99.13;95021.91;5088022;28;20047;-69
2021/06/27 02:48:42;;;;;;;17.50;3.08;;;;;;;16.30;98.34;95027.19;5088132;28;20036;-69
2021/06/27 02:51:09;;;;;;;17.00;3.58;;;;;;;16.29;98.29;95025.59;5087697;28;20043;-69
2021/06/27 02:53:35;;;;;;;17.77;3.58;;;;;;;16.32;97.66;95035.59;5087574;28;20036;-69
2021/06/27 02:56:09;;;;;;;15.32;3.35;;;;;;;16.32;97.37;95035.59;5088069;28;20180;-69
2021/06/27 02:58:43;;;;;;;13.52;2.80;;;;;;;16.36;97.77;95049.78;5086183;28;20036;-69
2021/06/27 03:01:11;;;;;;;17.83;3.05;;;;;;;16.29;96.97;95041.34;5087730;28;20052;-69
2021/06/27 03:03:40;;;;;;;9.40;2.97;;;;;;;16.33;97.16;95052.91;5087540;28;20051;-69
2021/06/27 03:06:07;;;;;;;20.33;3.55;;;;;;;16.13;97.62;95045.78;5087413;28;20129;-69
2021/06/27 03:08:35;;;;;;;13.75;3.35;;;;;;;16.05;98.34;95041.84;5087561;28;20036;-69
2021/06/27 03:11:02;;;;;;;15.25;3.33;;;;;;;16.05;98.27;95047.09;5085419;28;20047;-69
2021/06/27 03:13:33;;;;;;;15.00;2.80;;;;;;;16.02;98.38;95052.88;5087038;28;20089;-69
2021/06/27 03:16:00;;;;;;;11.38;2.85;;;;;;;16.09;98.48;95066.53;5085974;28;20039;-69
2021/06/27 03:18:27;;;;;;;11.07;2.60;;;;;;;16.08;98.77;95062.34;5087051;28;20040;-69
2021/06/27 03:20:54;;;;;;;10.38;3.17;;;;;;;16.03;99.31;95064.97;5087227;28;20077;-69
2021/06/27 03:23:21;;;;;;;10.77;3.13;;;;;;;16.00;99.38;95060.22;5086975;28;20060;-69
2021/06/27 03:25:47;;;;;;;7.15;2.90;;;;;;;16.03;99.86;95070.22;5087097;28;20059;-69
2021/06/27 03:28:15;;;;;;;11.52;3.30;;;;;;;16.01;100.00;95065.22;5085456;28;20040;-69
2021/06/27 03:30:41;;;;;;;12.93;3.60;;;;;;;16.00;100.00;95068.09;5085562;28;20040;-69
2021/06/27 03:33:10;;;;;;;16.25;3.70;;;;;;;15.97;100.00;95063.34;5087248;28;20036;-69
2021/06/27 03:35:36;;;;;;;6.22;2.97;;;;;;;15.99;100.00;95058.63;5087039;28;20044;-69
2021/06/27 03:40:30;;;;;;;8.65;3.42;;;;;;;16.08;100.00;95066.78;5086544;28;20050;-69
2021/06/27 03:43:01;;;;;;;14.45;3.70;;;;;;;16.10;100.00;95069.94;5086832;28;20433;-69
2021/06/27 03:45:29;;;;;;;12.70;3.50;;;;;;;16.13;100.00;95072.06;5086641;28;20044;-69
2021/06/27 03:47:56;;;;;;;11.88;4.05;;;;;;;15.98;100.00;95067.56;5085374;28;20050;-69
2021/06/27 03:50:23;;;;;;;12.30;4.88;;;;;;;15.86;100.00;95071.22;5086615;28;20043;-69
2021/06/27 03:52:50;;;;;;;13.73;4.90;;;;;;;15.84;100.00;95062.78;5085431;28;20058;-69
2021/06/27 03:55:18;;;;;;;17.25;4.63;;;;;;;15.97;100.00;95068.59;5085230;28;20437;-69
2021/06/27 03:57:47;;;;;;;17.08;4.72;;;;;;;16.09;100.00;95069.16;5083896;28;20044;-69
2021/06/27 04:00:16;;;;;;;16.10;4.68;;;;;;;16.26;100.00;95066.34;5086550;28;20039;-69
2021/06/27 04:02:45;;;;;;;10.30;5.10;;;;;;;16.41;100.00;95065.56;5086365;28;20093;-69
2021/06/27 04:05:13;;;;;;;21.58;5.45;;;;;;;16.41;100.00;95076.06;5086304;28;20040;-69
2021/06/27 04:07:41;;;;;;;14.63;4.97;;;;;;;16.39;100.00;95072.91;5085180;28;20044;-69
2021/06/27 04:10:08;;;;;;;15.50;5.30;;;;;;;16.53;100.00;95067.91;5086193;28;20036;-69
2021/06/27 04:17:24;;;;;;;22.33;5.88;;;;;;;16.21;100.00;95061.84;5110335;27;20500;-67
2021/06/27 04:19:51;;;;;;;17.60;7.07;;;;;;;16.46;100.00;95078.72;5122153;27;20641;-68
2021/06/27 04:22:18;;;;;;;16.13;5.22;;;;;;;16.48;100.00;95084.50;5121090;27;20055;-67
2021/06/27 04:24:45;;;;;;;16.02;5.32;;;;;;;16.45;100.00;95087.63;5118977;27;20261;-67
2021/06/27 04:27:11;;;;;;;16.65;4.57;;;;;;;16.48;100.00;95081.84;5124535;27;20054;-67
2021/06/27 04:29:38;;;;;;;13.35;6.07;;;;;;;16.33;100.00;95076.56;5123057;27;20050;-67
2021/06/27 04:32:05;;;;;;;24.38;8.20;;;;;;;16.24;100.00;95082.34;5123544;27;20067;-67
2021/06/27 04:34:32;;;;;;;18.55;8.00;;;;;;;16.19;100.00;95079.72;5126498;27;20039;-68
2021/06/27 04:36:59;;;;;;;21.63;7.32;;;;;;;16.25;100.00;95072.63;5125143;27;20524;-67
2021/06/27 04:39:26;;;;;;;20.85;6.25;;;;;;;16.25;100.00;95068.16;5126731;27;20496;-68
2021/06/27 04:41:53;;;;;;;23.77;5.75;;;;;;;16.23;100.00;95086.00;5124672;27;20055;-67
2021/06/27 04:44:20;;;;;;;19.48;5.68;;;;;;;16.08;100.00;95072.88;5128981;27;20105;-68
2021/06/27 04:46:47;;;;;;;23.08;6.80;;;;;;;16.20;100.00;95086.53;5125390;27;20039;-67
2021/06/27 04:49:14;;;;;;;17.50;5.68;;;;;;;16.27;100.00;95082.88;5128465;27;20035;-68
2021/06/27 04:51:41;;;;;;;17.58;6.95;;;;;;;16.27;100.00;95080.25;5122895;27;20070;-67
2021/06/27 04:54:08;;;;;;;16.17;5.93;;;;;;;16.36;100.00;95076.84;5126432;27;20038;-68
2021/06/27 04:56:35;;;;;;;18.75;6.88;;;;;;;16.44;100.00;95086.06;5124774;27;20462;-67
2021/06/27 04:59:02;;;;;;;21.20;6.75;;;;;;;16.53;100.00;95081.88;5122746;27;21232;-68
2021/06/27 05:01:30;;;;;;;17.42;6.80;;;;;;;16.73;100.00;95088.19;5123448;27;20513;-68
2021/06/27 05:03:57;;;;;;;16.05;7.60;;;;;;;16.81;100.00;95085.81;5123060;27;20038;-68
2021/06/27 05:06:24;;;;;;;22.73;6.78;;;;;;;16.82;100.00;95090.03;5124783;27;20050;-67
2021/06/27 05:08:50;;;;;;;18.10;6.82;;;;;;;16.96;100.00;95090.31;5125426;27;20038;-67
2021/06/27 05:11:17;;;;;;;20.67;7.70;;;;;;;17.12;100.00;95095.53;5126112;27;20059;-67
2021/06/27 05:13:44;;;;;;;18.52;6.75;;;;;;;17.06;100.00;95096.63;5122653;27;20085;-68
2021/06/27 05:16:11;;;;;;;14.65;6.45;;;;;;;17.22;100.00;95106.06;5116057;27;20040;-67
2021/06/27 05:18:38;;;;;;;20.35;6.45;;;;;;;17.39;100.00;95103.13;5122826;27;20472;-68
2021/06/27 05:21:05;;;;;;;17.63;6.78;;;;;;;17.33;100.00;95102.34;5126586;27;20039;-68
2021/06/27 05:23:32;;;;;;;17.02;6.95;;;;;;;17.34;100.00;95106.56;5125907;27;20378;-67
2021/06/27 05:25:59;;;;;;;21.60;7.00;;;;;;;17.42;100.00;95099.19;5126489;27;20489;-68
2021/06/27 05:28:27;;;;;;;19.48;7.43;;;;;;;17.53;100.00;95108.63;5113581;27;20058;-68
2021/06/27 05:30:54;;;;;;;19.88;7.82;;;;;;;17.63;100.00;95107.81;5106056;27;20044;-68
2021/06/27 05:33:21;;;;;;;15.98;7.50;;;;;;;17.72;100.00;95109.63;5092736;28;20562;-68
2021/06/27 05:35:48;;;;;;;15.70;7.32;;;;;;;17.86;100.00;95109.06;5113111;27;20028;-68
2021/06/27 05:38:14;;;;;;;16.77;7.50;;;;;;;17.88;100.00;95112.22;5111767;27;20074;-67
2021/06/27 05:40:41;;;;;;;16.40;7.30;;;;;;;17.99;100.00;95105.88;5111543;27;20043;-68
2021/06/27 05:43:08;;;;;;;18.52;7.68;;;;;;;18.01;100.00;95101.13;5112054;27;20055;-67
2021/06/27 05:45:35;;;;;;;16.92;6.47;;;;;;;18.14;100.00;95105.00;5110955;27;20047;-68
2021/06/27 05:48:02;;;;;;;22.13;7.40;;;;;;;18.30;100.00;95124.16;5111220;27;20051;-68
2021/06/27 05:50:29;;;;;;;15.32;6.50;;;;;;;18.38;99.58;95120.94;5108552;27;20050;-68
2021/06/27 05:52:57;;;;;;;20.67;6.82;;;;;;;18.42;99.33;95115.91;5110952;27;20047;-67
2021/06/27 05:55:24;;;;;;;16.70;6.88;;;;;;;18.44;97.89;95111.16;5109253;27;20036;-67
2021/06/27 05:57:51;;;;;;;12.75;6.75;;;;;;;18.59;97.32;95110.28;5113860;27;20062;-68
2021/06/27 06:00:19;;;;;;;20.67;7.65;;;;;;;18.61;97.34;95110.78;5109151;27;20054;-68
2021/06/27 06:02:46;;;;;;;12.60;6.63;;;;;;;18.62;97.06;95104.44;5106078;27;20517;-67
2021/06/27 06:05:13;;;;;;;18.73;7.72;;;;;;;18.61;96.37;95102.88;5111695;27;20044;-68
2021/06/27 06:07:40;;;;;;;17.13;6.95;;;;;;;18.75;98.15;95113.59;5107029;27;20051;-68
2021/06/27 06:10:07;;;;;;;16.02;7.03;;;;;;;18.69;97.28;95100.44;5112011;27;20112;-68
2021/06/27 06:12:34;;;;;;;15.45;6.55;;;;;;;18.85;96.50;95108.25;5109078;27;20055;-67
2021/06/27 06:15:03;;;;;;;11.30;6.40;;;;;;;18.96;97.33;95111.59;5108088;27;20035;-68
2021/06/27 06:17:30;;;;;;;16.90;6.38;;;;;;;19.08;96.74;95109.41;5102827;27;20047;-68
2021/06/27 06:19:57;;;;;;;19.13;5.28;;;;;;;19.17;94.59;95105.09;5108488;27;20101;-68
2021/06/27 06:22:24;;;;;;;17.45;5.97;;;;;;;19.32;94.07;95111.28;5107811;27;20509;-68
2021/06/27 06:24:54;;;;;;;13.57;5.72;;;;;;;19.38;91.42;95104.91;5107719;28;20045;-68
2021/06/27 06:27:21;;;;;;;16.55;5.63;;;;;;;19.46;91.03;95106.94;5109270;27;20059;-68
2021/06/27 06:29:48;;;;;;;18.00;5.90;;;;;;;19.61;92.06;95098.06;5109077;27;20044;-68
2021/06/27 06:32:15;;;;;;;14.90;5.15;;;;;;;19.66;91.13;95096.16;5105631;27;20062;-68
2021/06/27 06:34:42;;;;;;;20.92;5.63;;;;;;;19.81;89.44;95112.94;5107208;27;20416;-68
2021/06/27 06:37:08;;;;;;;19.63;5.88;;;;;;;19.88;89.19;95112.56;5107158;27;20047;-68
2021/06/27 06:39:35;;;;;;;18.77;5.18;;;;;;;19.98;89.84;95092.09;5107171;27;20046;-67
2021/06/27 06:42:02;;;;;;;20.58;6.43;;;;;;;20.23;88.28;95103.41;5107823;27;20047;-68
2021/06/27 06:44:29;;;;;;;12.13;5.65;;;;;;;20.32;89.19;95109.63;5111970;27;20043;-67
2021/06/27 06:46:56;;;;;;;14.63;6.25;;;;;;;20.41;88.26;95104.50;5107768;27;20480;-68
2021/06/27 06:49:22;;;;;;;17.40;6.57;;;;;;;20.40;88.45;95097.63;5108693;27;20035;-67
2021/06/27 06:51:49;;;;;;;21.50;6.28;;;;;;;20.56;88.73;95111.41;5108583;27;20035;-68
2021/06/27 06:54:16;;;;;;;22.52;6.28;;;;;;;20.74;90.04;95108.03;5091254;27;20055;-68
2021/06/27 06:56:43;;;;;;;18.27;5.80;;;;;;;20.84;87.60;95095.69;5106064;27;20028;-68
2021/06/27 06:59:10;;;;;;;14.07;5.75;;;;;;;21.07;84.50;95110.66;5108572;27;20042;-68
2021/06/27 07:01:40;;;;;;;21.27;7.57;;;;;;;21.25;84.25;95105.59;5104220;28;20553;-68
2021/06/27 07:04:07;;;;;;;22.23;9.80;;;;;;;21.35;83.92;95100.13;5108387;27;20074;-65
2021/06/27 07:06:34;;;;;;;15.63;6.38;;;;;;;21.37;82.72;95100.63;5106359;27;20050;-65
2021/06/27 07:09:01;;;;;;;23.45;11.57;;;;;;;21.32;83.84;95095.41;5106955;28;20063;-65
2021/06/27 07:11:27;;;;;;;14.43;6.72;;;;;;;21.45;83.88;95102.63;5108133;27;20062;-65
2021/06/27 07:13:54;;;;;;;11.25;4.78;;;;;;;21.58;82.01;95104.50;5106985;27;20058;-65
2021/06/27 07:16:22;;;;;;;18.63;5.03;;;;;;;21.61;81.21;95099.69;5100490;28;20428;-66
2021/06/27 07:18:49;;;;;;;15.88;4.63;;;;;;;21.83;83.46;95113.03;5106224;28;20112;-66
2021/06/27 07:21:16;;;;;;;19.17;5.03;;;;;;;21.93;79.58;95098.78;5107600;28;20043;-66
2021/06/27 07:23:43;;;;;;;14.75;4.78;;;;;;;22.00;79.90;95114.31;5089074;28;20052;-66
2021/06/27 07:26:10;;;;;;;14.73;5.28;;;;;;;22.16;77.63;95112.91;5107914;28;20035;-66
2021/06/27 07:28:37;;;;;;;13.38;3.60;;;;;;;22.28;77.33;95099.94;5090391;28;20043;-66
2021/06/27 07:31:04;;;;;;;13.57;3.60;;;;;;;22.48;76.06;95097.94;5107512;28;20046;-66
2021/06/27 07:33:31;;;;;;;13.68;3.83;;;;;;;22.56;76.10;95089.25;5089311;28;20563;-66
2021/06/27 07:35:58;;;;;;;16.17;3.80;;;;;;;22.69;75.98;95099.03;5108624;27;20044;-66
2021/06/27 07:38:24;;;;;;;15.43;4.03;;;;;;;22.87;75.35;95099.19;5105983;28;20521;-66
2021/06/27 07:40:51;;;;;;;22.13;4.68;;;;;;;23.03;75.79;95103.03;5107469;28;20039;-66
2021/06/27 07:43:19;;;;;;;13.52;6.05;;;;;;;23.07;74.72;95093.38;5106815;28;20421;-66
2021/06/27 07:45:46;;;;;;;14.77;4.57;;;;;;;23.32;74.77;95093.03;5106973;28;20050;-66
2021/06/27 07:48:13;;;;;;;14.70;4.88;;;;;;;23.41;74.75;95107.19;5107110;28;20058;-66
2021/06/27 07:50:44;;;;;;;15.73;4.13;;;;;;;23.57;73.56;95095.06;5107079;28;20523;-66
2021/06/27 07:53:11;;;;;;;17.00;4.07;;;;;;;23.56;71.10;95103.31;5107376;28;20039;-67
2021/06/27 07:55:38;;;;;;;15.63;3.53;;;;;;;23.66;70.05;95097.75;5107039;28;20040;-66
2021/06/27 07:58:05;;;;;;;18.77;4.22;;;;;;;23.74;70.61;95093.53;5089180;28;20039;-66
2021/06/27 08:00:32;;;;;;;12.70;4.25;;;;;;;23.87;72.42;95097.22;5106804;28;20055;-66
2021/06/27 08:03:00;;;;;;;18.50;4.32;;;;;;;23.91;72.08;95088.28;5106893;28;20035;-66
2021/06/27 08:05:27;;;;;;;18.88;4.03;;;;;;;24.15;71.29;95098.53;5107246;28;20515;-66
2021/06/27 08:07:54;;;;;;;14.70;3.53;;;;;;;24.34;74.05;95092.91;5107189;28;20031;-66
2021/06/27 08:10:25;;;;;;;15.45;3.28;;;;;;;24.46;71.40;95086.97;5106898;28;20073;-66
2021/06/27 08:12:52;;;;;;;9.48;4.03;;;;;;;24.69;69.28;95078.84;5106736;28;20040;-66
2021/06/27 08:15:19;;;;;;;11.65;3.03;;;;;;;24.83;67.79;95094.66;5108030;28;20047;-66
2021/06/27 08:17:48;;;;;;;18.20;3.67;;;;;;;25.06;69.30;95100.56;5104357;28;20044;-66
2021/06/27 08:20:17;;;;;;;11.38;3.60;;;;;;;25.26;68.01;95097.25;5106674;28;20058;-66
2021/06/27 08:22:44;;;;;;;11.65;3.67;;;;;;;25.47;65.98;95093.91;5107243;28;20505;-66
2021/06/27 08:25:11;;;;;;;13.43;3.53;;;;;;;25.64;66.66;95083.19;5107073;28;20039;-66
2021/06/27 08:27:38;;;;;;;9.05;3.58;;;;;;;25.78;67.22;95080.28;5106190;28;20046;-66
2021/06/27 08:30:09;;;;;;;16.70;4.28;;;;;;;25.91;65.66;95089.16;5087639;28;20447;-66
2021/06/27 08:32:42;;;;;;;11.40;3.60;;;;;;;25.83;61.35;95079.34;5106781;28;20101;-67
2021/06/27 08:35:17;;;;;;;12.18;3.08;;;;;;;26.12;63.19;95079.34;5106282;28;20044;-66
2021/06/27 08:37:46;;;;;;;8.73;3.15;;;;;;;26.24;60.57;95069.84;5106033;28;20039;-67
2021/06/27 08:40:15;;;;;;;16.92;4.93;;;;;;;26.47;61.39;95075.63;5106423;28;20092;-66
2021/06/27 08:42:42;;;;;;;13.30;3.70;;;;;;;26.58;61.53;95062.66;5106735;28;20058;-67
2021/06/27 08:45:11;;;;;;;10.27;3.10;;;;;;;26.78;59.02;95069.91;5106499;28;20044;-67
2021/06/27 08:47:39;;;;;;;15.43;3.08;;;;;;;26.94;59.67;95074.63;5106598;28;20048;-66
2021/06/27 08:50:09;;;;;;;25.27;3.15;;;;;;;27.08;57.62;95067.09;5105636;28;20044;-67
2021/06/27 08:52:36;;;;;;;7.60;3.05;;;;;;;27.14;58.45;95059.69;5106353;28;20039;-66
2021/06/27 08:55:04;;;;;;;10.35;2.90;;;;;;;27.34;57.76;95061.50;5106522;28;20051;-66
2021/06/27 08:57:31;;;;;;;11.00;3.35;;;;;;;27.44;57.82;95060.28;5105530;28;20489;-66
2021/06/27 08:59:58;;;;;;;13.43;3.38;;;;;;;27.68;56.76;95064.09;5087733;28;20422;-67
2021/06/27 09:02:26;;;;;;;11.00;2.80;;;;;;;27.71;56.20;95066.09;5089074;27;20043;-67
2021/06/27 09:04:53;;;;;;;13.57;3.88;;;;;;;27.95;58.00;95063.44;5110435;27;20088;-66
2021/06/27 09:07:27;;;;;;;8.40;2.95;;;;;;;28.10;52.82;95059.28;5110678;27;20032;-66
2021/06/27 09:09:56;;;;;;;14.35;3.67;;;;;;;28.01;55.07;95064.00;5110189;28;20051;-66
2021/06/27 09:12:23;;;;;;;12.00;3.03;;;;;;;28.26;53.38;95056.69;5111453;27;20057;-67
2021/06/27 09:14:55;;;;;;;8.60;3.13;;;;;;;28.43;53.92;95069.03;5110224;28;20035;-66
2021/06/27 09:17:25;;;;;;;16.40;3.15;;;;;;;28.74;52.43;95062.28;5108263;27;20398;-67
2021/06/27 09:19:52;;;;;;;12.13;2.65;;;;;;;28.89;49.45;95066.13;5109340;28;20043;-66
2021/06/27 09:22:26;;;;;;;12.48;2.70;;;;;;;29.10;49.44;95055.94;5109634;27;20047;-66
2021/06/27 09:25:11;;;;;;;11.75;3.28;;;;;;;29.27;48.83;95064.81;5109701;27;20032;-66
2021/06/27 09:27:39;;;;;;;14.75;2.95;;;;;;;29.32;48.62;95056.53;5108605;28;20468;-66
2021/06/27 09:30:18;;;;;;;9.23;3.15;;;;;;;29.31;47.63;95060.31;5109312;28;20558;-67
2021/06/27 09:32:50;;;;;;;7.88;3.00;;;;;;;29.45;47.87;95063.34;5109513;28;20040;-67
2021/06/27 09:35:44;;;;;;;9.05;3.38;;;;;;;29.50;47.67;95057.72;5109224;28;20428;-67
2021/06/27 09:38:26;;;;;;;10.00;3.17;;;;;;;29.65;48.56;95058.06;5109176;27;20508;-67
2021/06/27 09:40:55;;;;;;;14.85;3.17;;;;;;;29.73;44.43;95054.44;5109450;28;20031;-67
2021/06/27 09:43:22;;;;;;;11.77;4.30;;;;;;;29.85;49.83;95057.03;5107903;27;20071;-67
2021/06/27 09:45:53;;;;;;;9.77;3.60;;;;;;;30.24;48.83;95046.38;5107568;27;20046;-67
2021/06/27 09:48:20;;;;;;;13.82;3.35;;;;;;;30.28;47.66;95051.81;5108985;27;20065;-67
2021/06/27 09:50:47;;;;;;;12.38;3.17;;;;;;;30.29;45.08;95053.38;5110585;27;20039;-67
2021/06/27 09:53:45;;;;;;;11.20;3.78;;;;;;;30.73;45.71;95044.28;5110281;27;20051;-67
2021/06/27 09:56:13;;;;;;;12.35;3.35;;;;;;;30.79;43.83;95034.78;5107311;27;20139;-67
2021/06/27 09:58:39;;;;;;;8.57;3.53;;;;;;;30.84;46.07;95039.88;5089386;27;20040;-67
2021/06/27 10:01:22;;;;;;;7.40;2.75;;;;;;;30.73;45.44;95039.69;5108377;28;20047;-67
2021/06/27 10:03:56;;;;;;;4.82;2.40;;;;;;;30.57;45.57;95026.31;5107328;27;20055;-67
2021/06/27 10:06:25;;;;;;;8.85;2.90;;;;;;;30.65;45.11;95038.78;5108006;28;20118;-67
2021/06/27 10:08:53;;;;;;;11.80;3.92;;;;;;;30.80;44.18;95033.66;5107466;28;20043;-67
2021/06/27 10:11:24;;;;;;;6.20;3.33;;;;;;;30.58;42.30;95045.94;5107802;27;20051;-67
2021/06/27 10:13:54;;;;;;;20.77;6.85;;;;;;;30.42;45.23;95037.94;5108207;28;20036;-68
2021/06/27 10:16:30;;;;;;;17.15;4.25;;;;;;;30.05;44.49;95038.28;5106607;28;20078;-67
2021/06/27 10:18:58;;;;;;;15.73;6.57;;;;;;;30.13;44.41;95034.63;5105447;28;20031;-67
2021/06/27 10:21:26;;;;;;;12.32;4.50;;;;;;;30.08;45.44;95037.59;5108413;28;20043;-67
2021/06/27 10:23:54;;;;;;;7.95;3.20;;;;;;;30.33;43.37;95032.72;5108695;27;20047;-67
2021/06/27 10:26:23;;;;;;;9.77;3.15;;;;;;;30.98;41.49;95034.78;5108222;28;20058;-67
2021/06/27 10:28:52;;;;;;;9.40;3.10;;;;;;;31.20;40.62;95029.78;5108532;28;20043;-67
2021/06/27 10:31:24;;;;;;;10.68;3.50;;;;;;;31.48;41.72;95028.72;5109544;27;20043;-67
2021/06/27 10:33:52;;;;;;;11.55;3.75;;;;;;;31.47;43.98;95025.22;5107146;28;20067;-67
2021/06/27 10:36:27;;;;;;;7.65;3.53;;;;;;;31.59;40.13;95029.69;5106964;28;20046;-67
2021/06/27 10:38:56;;;;;;;10.27;2.92;;;;;;;31.62;38.63;95018.16;5106917;27;20709;-67
2021/06/27 10:41:49;;;;;;;8.52;3.17;;;;;;;31.85;38.88;95025.44;5111299;27;20046;-67
2021/06/27 10:44:18;;;;;;;8.93;3.20;;;;;;;31.69;38.82;95017.50;5109583;27;20035;-67
2021/06/27 10:46:49;;;;;;;16.08;3.65;;;;;;;31.97;39.98;95028.69;5107649;28;20425;-67
2021/06/27 10:49:31;;;;;;;10.48;3.42;;;;;;;32.05;37.05;95029.59;5109270;27;20044;-67
2021/06/27 10:52:12;;;;;;;10.35;3.20;;;;;;;31.96;37.95;95018.28;5107746;28;20045;-67
2021/06/27 10:54:41;;;;;;;12.85;4.00;;;;;;;31.95;38.68;95024.81;5108041;28;20516;-66
2021/06/27 10:57:10;;;;;;;10.10;3.63;;;;;;;32.42;38.09;95020.81;5106495;28;20035;-67
2021/06/27 10:59:39;;;;;;;9.77;3.63;;;;;;;32.74;37.05;95020.44;5107645;28;20051;-67
2021/06/27 11:02:16;;;;;;;10.98;3.00;;;;;;;32.96;38.56;95016.81;5107469;28;20040;-67
2021/06/27 11:04:43;;;;;;;10.65;3.35;;;;;;;33.24;38.66;95018.28;5107656;27;20032;-67
2021/06/27 11:07:36;;;;;;;12.75;3.35;;;;;;;33.50;37.25;95016.53;5106709;28;20036;-67
2021/06/27 11:10:30;;;;;;;7.80;3.25;;;;;;;33.74;34.79;95017.13;5106889;28;20546;-67
2021/06/27 11:13:07;;;;;;;10.60;3.47;;;;;;;33.93;34.77;95022.25;5103816;28;20547;-67
2021/06/27 11:15:39;;;;;;;13.45;2.92;;;;;;;33.94;34.08;95013.00;5108913;27;20044;-67
2021/06/27 11:18:09;;;;;;;7.68;3.15;;;;;;;33.64;33.90;95003.13;5105532;28;20398;-67
2021/06/27 11:20:48;;;;;;;12.75;4.50;;;;;;;33.68;33.96;95017.47;5107289;28;20913;-67
2021/06/27 11:23:15;;;;;;;10.75;3.17;;;;;;;33.64;34.15;95010.47;5107340;27;20062;-67
2021/06/27 11:25:45;;;;;;;13.18;3.80;;;;;;;33.88;33.92;95030.72;5106984;28;20047;-67
2021/06/27 11:28:18;;;;;;;10.27;3.78;;;;;;;33.36;34.87;95009.09;5107248;27;20043;-67
2021/06/27 11:31:22;;;;;;;10.70;3.30;;;;;;;33.67;37.48;95009.72;5108663;27;20039;-67
2021/06/27 11:34:28;;;;;;;11.48;4.18;;;;;;;34.01;36.75;95004.91;5106900;28;20035;-67
2021/06/27 11:36:57;;;;;;;15.95;3.42;;;;;;;34.28;36.30;95004.69;5082968;28;20058;-67